Time;durP1;ratioP1;P1;durP2;ratioP2;P2;SDS_P1;SDS_P2;PMS_P1;PMS_P2;Temp;Humidity;BMP_temperature;BMP_pressure;BME280_temperature;BME280_humidity;BME280_pressure;Samples;Min_cycle;Max_cycle;Signal;HPM_P1;HPM_P2
2021/08/01 00:00:58;;;;;;;7.90;7.13;;;17.20;99.90;;;;;;5032865;28;20727;-62
2021/08/01 00:03:24;;;;;;;9.07;6.20;;;17.20;99.90;;;;;;5013284;28;20182;-63
2021/08/01 00:05:50;;;;;;;6.57;5.93;;;17.10;99.90;;;;;;5012293;28;20622;-62
2021/08/01 00:08:15;;;;;;;6.77;6.23;;;17.10;99.90;;;;;;5012739;28;20203;-63
2021/08/01 00:10:41;;;;;;;7.00;6.30;;;17.10;99.90;;;;;;5013310;28;20171;-62
2021/08/01 00:13:07;;;;;;;8.47;7.37;;;17.00;99.90;;;;;;5013217;28;20506;-62
2021/08/01 00:15:33;;;;;;;7.90;6.63;;;17.00;99.90;;;;;;5013133;28;20458;-63
2021/08/01 00:17:59;;;;;;;9.17;8.10;;;16.90;99.90;;;;;;5030690;28;20209;-63
2021/08/01 00:20:25;;;;;;;7.10;5.90;;;16.90;99.90;;;;;;5033074;28;20436;-63
2021/08/01 00:22:50;;;;;;;9.67;6.00;;;16.90;99.90;;;;;;5034187;28;20759;-63
2021/08/01 00:25:16;;;;;;;5.53;5.07;;;17.00;99.90;;;;;;5036804;28;20202;-63
2021/08/01 00:27:43;;;;;;;6.30;4.30;;;16.90;99.90;;;;;;5036427;28;20656;-63
2021/08/01 00:30:10;;;;;;;6.40;5.77;;;16.90;99.90;;;;;;5036482;28;20185;-63
2021/08/01 00:32:37;;;;;;;7.50;4.17;;;16.90;99.90;;;;;;5019420;28;20422;-65
2021/08/01 00:35:03;;;;;;;4.50;4.20;;;16.80;99.90;;;;;;5016761;28;20407;-69
2021/08/01 00:37:29;;;;;;;4.40;4.10;;;16.80;99.90;;;;;;5016374;28;20935;-64
2021/08/01 00:39:54;;;;;;;5.63;5.13;;;16.80;99.90;;;;;;5016531;28;20505;-67
2021/08/01 00:42:20;;;;;;;5.13;4.37;;;16.70;99.90;;;;;;5016460;28;20248;-64
2021/08/01 00:44:46;;;;;;;5.63;5.13;;;16.70;99.90;;;;;;5016639;28;20237;-70
2021/08/01 00:47:12;;;;;;;5.77;4.23;;;16.70;99.90;;;;;;5031662;28;20232;-65
2021/08/01 00:49:39;;;;;;;6.20;5.60;;;16.70;99.90;;;;;;5036373;28;20432;-67
2021/08/01 00:52:05;;;;;;;5.53;4.03;;;16.70;99.90;;;;;;5036221;28;20821;-66
2021/08/01 00:54:34;;;;;;;6.13;5.53;;;16.70;99.90;;;;;;5036444;28;20424;-64
2021/08/01 00:57:04;;;;;;;4.90;4.30;;;16.70;99.90;;;;;;5036014;28;20409;-64
2021/08/01 00:59:38;;;;;;;4.00;3.67;;;16.70;99.90;;;;;;5036025;28;20444;-69
2021/08/01 01:02:08;;;;;;;3.97;3.70;;;16.70;99.90;;;;;;5034604;28;20944;-66
2021/08/01 01:04:46;;;;;;;4.10;3.70;;;16.70;99.90;;;;;;5036258;28;20779;-66
2021/08/01 01:07:27;;;;;;;3.70;3.40;;;16.60;99.90;;;;;;5035581;28;20464;-65
2021/08/01 01:10:07;;;;;;;4.97;4.60;;;16.50;99.90;;;;;;5035995;28;20413;-68
2021/08/01 01:12:54;;;;;;;3.27;2.70;;;16.30;99.90;;;;;;5022933;28;20919;-63
2021/08/01 01:15:26;;;;;;;4.67;3.57;;;16.30;99.90;;;;;;5015954;28;20401;-67
2021/08/01 01:17:56;;;;;;;3.60;3.30;;;16.20;99.90;;;;;;5016747;28;20496;-68
2021/08/01 01:20:53;;;;;;;5.33;4.87;;;16.10;99.90;;;;;;5016323;28;20433;-66
2021/08/01 01:24:00;;;;;;;4.03;3.63;;;16.00;99.90;;;;;;5015967;28;20401;-68
2021/08/01 01:26:28;;;;;;;4.63;3.90;;;15.90;99.90;;;;;;5033918;28;20503;-68
2021/08/01 01:28:56;;;;;;;4.50;3.90;;;15.80;99.90;;;;;;5033336;28;20515;-66
2021/08/01 01:31:49;;;;;;;3.77;3.47;;;15.80;99.90;;;;;;5033381;28;20467;-68
2021/08/01 01:34:27;;;;;;;3.97;3.63;;;15.70;99.90;;;;;;5032904;28;20424;-69
2021/08/01 01:36:54;;;;;;;4.23;3.83;;;15.70;99.90;;;;;;5032965;28;20440;-66
2021/08/01 01:39:21;;;;;;;4.90;4.50;;;15.70;99.90;;;;;;5033400;28;20507;-66
2021/08/01 01:41:48;;;;;;;7.77;4.70;;;15.60;99.90;;;;;;5043505;28;20806;-64
2021/08/01 01:44:15;;;;;;;12.23;4.90;;;15.60;99.90;;;;;;5053201;28;20554;-65
2021/08/01 01:46:43;;;;;;;4.30;3.90;;;15.60;99.90;;;;;;5052608;28;20448;-66
2021/08/01 01:49:10;;;;;;;4.70;4.23;;;15.60;99.90;;;;;;5052928;28;20510;-65
2021/08/01 01:51:37;;;;;;;6.23;4.47;;;15.60;99.90;;;;;;5053203;28;20864;-67
2021/08/01 01:54:06;;;;;;;4.40;4.00;;;15.50;99.90;;;;;;5053285;28;20386;-65
2021/08/01 01:56:34;;;;;;;4.07;3.60;;;15.60;99.90;;;;;;5037391;28;20441;-69
2021/08/01 01:59:03;;;;;;;3.33;3.03;;;15.50;99.90;;;;;;5015102;28;20433;-65
2021/08/01 02:01:29;;;;;;;4.70;4.30;;;15.50;99.90;;;;;;5015181;28;20907;-68
2021/08/01 02:03:54;;;;;;;4.00;3.70;;;15.50;99.90;;;;;;5015381;28;20383;-66
2021/08/01 02:06:21;;;;;;;3.87;3.57;;;15.50;99.90;;;;;;5015186;28;20166;-68
2021/08/01 02:08:56;;;;;;;3.80;3.50;;;15.50;99.90;;;;;;5014751;28;20293;-64
2021/08/01 02:11:25;;;;;;;5.07;3.70;;;15.50;99.90;;;;;;5025929;28;20415;-66
2021/08/01 02:14:14;;;;;;;4.30;4.00;;;15.50;99.90;;;;;;5034938;28;20404;-67
2021/08/01 02:16:42;;;;;;;4.80;4.40;;;15.50;99.90;;;;;;5034500;28;20397;-67
2021/08/01 02:19:09;;;;;;;3.60;3.23;;;15.50;99.90;;;;;;5034578;28;20406;-67
2021/08/01 02:21:39;;;;;;;3.77;3.47;;;15.50;99.90;;;;;;5034774;28;20937;-68
2021/08/01 02:24:07;;;;;;;3.60;3.30;;;15.50;99.90;;;;;;5034254;28;20408;-65
2021/08/01 02:26:34;;;;;;;4.40;4.10;;;15.50;99.90;;;;;;5019266;28;20472;-65
2021/08/01 02:29:01;;;;;;;3.90;3.37;;;15.50;99.90;;;;;;5014840;28;20462;-66
2021/08/01 02:31:28;;;;;;;8.43;3.67;;;15.50;99.90;;;;;;5014550;28;20444;-68
2021/08/01 02:33:55;;;;;;;4.10;3.70;;;15.50;99.90;;;;;;5013534;28;20410;-65
2021/08/01 02:36:22;;;;;;;6.07;5.27;;;15.50;99.90;;;;;;5014520;28;20410;-69
2021/08/01 02:38:53;;;;;;;3.50;3.20;;;15.40;99.90;;;;;;5014205;28;20428;-65
2021/08/01 02:41:37;;;;;;;4.10;3.80;;;15.40;99.90;;;;;;5029289;28;20460;-70
2021/08/01 02:44:09;;;;;;;3.57;3.17;;;15.40;99.90;;;;;;5034325;28;20766;-63
2021/08/01 02:46:38;;;;;;;4.13;3.60;;;15.50;99.90;;;;;;5033473;28;20448;-67
2021/08/01 02:49:07;;;;;;;5.33;4.17;;;15.50;99.90;;;;;;5034233;28;20530;-64
2021/08/01 02:51:33;;;;;;;5.00;4.50;;;15.50;99.90;;;;;;5034184;28;20863;-67
2021/08/01 02:54:01;;;;;;;3.93;3.30;;;15.50;99.90;;;;;;5034263;28;20447;-65
2021/08/01 02:56:31;;;;;;;4.70;4.20;;;15.50;99.90;;;;;;5019185;28;20173;-70
2021/08/01 02:58:58;;;;;;;4.90;4.47;;;15.60;99.90;;;;;;5033707;28;20406;-63
2021/08/01 03:01:24;;;;;;;8.53;4.43;;;15.60;99.90;;;;;;5033781;28;20937;-67
2021/08/01 03:03:51;;;;;;;6.13;3.93;;;15.60;99.90;;;;;;5032708;28;20407;-66
2021/08/01 03:06:17;;;;;;;5.17;4.70;;;15.70;99.90;;;;;;5033801;28;20408;-68
2021/08/01 03:08:43;;;;;;;4.80;3.60;;;15.60;99.90;;;;;;5032140;28;20461;-67
2021/08/01 03:11:12;;;;;;;4.77;4.10;;;15.60;99.90;;;;;;5016060;28;20492;-66
2021/08/01 03:13:38;;;;;;;5.27;4.13;;;15.70;99.90;;;;;;5014132;28;20403;-67
2021/08/01 03:16:04;;;;;;;4.70;4.03;;;15.70;99.90;;;;;;5013918;28;20457;-65
2021/08/01 03:18:29;;;;;;;4.83;4.43;;;15.70;99.90;;;;;;5013478;28;20432;-68
2021/08/01 03:20:55;;;;;;;6.27;4.10;;;15.70;99.90;;;;;;5014099;28;20171;-65
2021/08/01 03:23:21;;;;;;;5.37;4.60;;;15.70;99.90;;;;;;5014029;28;20637;-66
2021/08/01 03:25:46;;;;;;;4.23;3.53;;;15.70;99.90;;;;;;5014754;28;20182;-64
2021/08/01 03:28:12;;;;;;;7.73;4.20;;;15.80;99.90;;;;;;5013012;28;20241;-65
2021/08/01 03:30:38;;;;;;;4.83;3.40;;;15.80;99.90;;;;;;5013708;28;20189;-69
2021/08/01 03:33:03;;;;;;;9.73;4.03;;;15.80;99.90;;;;;;5012415;28;20258;-65
2021/08/01 03:35:29;;;;;;;4.50;4.20;;;15.70;99.90;;;;;;5013873;28;20171;-64
2021/08/01 03:37:54;;;;;;;4.00;3.53;;;15.70;99.90;;;;;;5013263;28;20195;-67
2021/08/01 03:40:20;;;;;;;4.80;4.40;;;15.60;99.90;;;;;;5028602;28;20646;-66
2021/08/01 03:42:46;;;;;;;3.93;3.50;;;15.60;99.90;;;;;;5033439;28;20191;-64
2021/08/01 03:45:12;;;;;;;6.30;3.83;;;15.50;99.90;;;;;;5033277;28;20166;-66
2021/08/01 03:47:38;;;;;;;4.37;3.97;;;15.50;99.90;;;;;;5032972;28;20537;-66
2021/08/01 03:50:05;;;;;;;3.87;3.57;;;15.50;99.90;;;;;;5033261;28;20404;-67
2021/08/01 03:52:30;;;;;;;3.90;3.57;;;15.50;99.90;;;;;;5033397;28;20760;-65
2021/08/01 03:54:56;;;;;;;3.83;3.43;;;15.40;99.90;;;;;;5032763;28;20442;-66
2021/08/01 03:57:22;;;;;;;3.50;3.20;;;15.50;99.90;;;;;;5033532;28;20177;-62
2021/08/01 03:59:47;;;;;;;4.43;3.73;;;15.50;99.90;;;;;;5037230;28;20190;-66
2021/08/01 04:02:13;;;;;;;4.40;3.87;;;15.50;99.90;;;;;;5037269;28;20174;-63
2021/08/01 04:04:39;;;;;;;4.40;4.00;;;15.40;99.90;;;;;;5037291;28;20693;-66
2021/08/01 04:07:05;;;;;;;4.40;4.00;;;15.40;99.90;;;;;;5037140;28;20632;-64
2021/08/01 04:09:31;;;;;;;4.67;4.20;;;15.40;99.90;;;;;;5024584;28;20536;-66
2021/08/01 04:11:57;;;;;;;5.10;4.53;;;15.40;99.90;;;;;;5017425;28;20484;-66
2021/08/01 04:14:25;;;;;;;5.43;4.23;;;15.30;99.90;;;;;;5017345;28;20433;-66
2021/08/01 04:16:51;;;;;;;4.40;4.07;;;15.30;99.90;;;;;;5017010;28;20182;-65
2021/08/01 04:19:16;;;;;;;5.03;4.63;;;15.30;99.90;;;;;;5017036;28;20429;-65
2021/08/01 04:21:43;;;;;;;5.07;3.97;;;15.30;99.90;;;;;;5017250;28;20408;-65
2021/08/01 04:24:09;;;;;;;6.83;3.67;;;15.30;99.90;;;;;;5027904;28;20332;-65
2021/08/01 04:26:36;;;;;;;4.33;3.60;;;15.30;99.90;;;;;;5036518;28;20538;-68
2021/08/01 04:29:03;;;;;;;4.13;3.70;;;15.30;99.90;;;;;;5036870;28;20417;-64
2021/08/01 04:31:28;;;;;;;4.23;3.73;;;15.30;99.90;;;;;;5036613;28;20439;-66
2021/08/01 04:33:54;;;;;;;4.00;3.60;;;15.30;99.90;;;;;;5036732;28;20764;-65
2021/08/01 04:36:19;;;;;;;4.33;3.80;;;15.30;99.90;;;;;;5036765;28;20252;-64
2021/08/01 04:38:45;;;;;;;4.20;3.87;;;15.20;99.90;;;;;;5026089;28;20725;-64
2021/08/01 04:41:11;;;;;;;3.60;3.30;;;15.20;99.90;;;;;;5016659;28;20166;-67
2021/08/01 04:43:36;;;;;;;3.50;3.20;;;15.20;99.90;;;;;;5016971;28;20169;-66
2021/08/01 04:46:02;;;;;;;4.30;3.90;;;15.20;99.90;;;;;;5016742;28;20216;-65
2021/08/01 04:48:27;;;;;;;5.13;4.27;;;15.20;99.90;;;;;;5016261;28;20232;-68
2021/08/01 04:50:53;;;;;;;3.90;3.53;;;15.20;99.90;;;;;;5016736;28;20201;-66
2021/08/01 04:53:19;;;;;;;4.47;4.07;;;15.20;99.90;;;;;;5016704;28;20502;-67
2021/08/01 04:55:44;;;;;;;3.60;3.03;;;15.20;99.90;;;;;;5016664;28;20517;-66
2021/08/01 04:58:10;;;;;;;3.87;3.50;;;15.30;99.90;;;;;;5016381;28;20253;-69
2021/08/01 05:00:36;;;;;;;4.13;3.50;;;15.30;99.90;;;;;;5036612;28;20253;-66
2021/08/01 05:03:02;;;;;;;4.67;3.90;;;15.30;99.90;;;;;;5036345;28;20209;-69
2021/08/01 05:05:34;;;;;;;5.93;3.43;;;15.30;99.90;;;;;;5036388;28;20253;-65
2021/08/01 05:08:00;;;;;;;3.67;3.27;;;15.30;99.90;;;;;;5035582;28;20543;-69
2021/08/01 05:10:26;;;;;;;4.90;3.43;;;15.30;99.90;;;;;;5035631;28;20500;-67
2021/08/01 05:12:51;;;;;;;3.40;3.10;;;15.30;99.90;;;;;;5035669;28;20205;-67
2021/08/01 05:15:17;;;;;;;5.30;3.77;;;15.30;99.90;;;;;;5016147;28;20174;-69
2021/08/01 05:17:43;;;;;;;4.07;3.77;;;15.30;99.90;;;;;;5029542;28;20188;-68
2021/08/01 05:20:09;;;;;;;5.00;3.90;;;15.30;99.90;;;;;;5020649;28;20257;-64
2021/08/01 05:22:34;;;;;;;3.97;3.67;;;15.30;99.90;;;;;;5016036;28;20186;-64
2021/08/01 05:25:00;;;;;;;3.73;3.43;;;15.30;99.90;;;;;;5025768;28;20424;-67
2021/08/01 05:27:26;;;;;;;4.67;3.63;;;15.30;99.90;;;;;;5015389;28;20213;-65
2021/08/01 05:29:51;;;;;;;4.47;4.07;;;15.30;99.90;;;;;;5015791;28;20217;-67
2021/08/01 05:32:17;;;;;;;4.50;4.20;;;15.30;99.90;;;;;;5016036;28;20178;-68
2021/08/01 05:34:42;;;;;;;4.17;3.87;;;15.40;99.90;;;;;;5030127;28;20174;-68
2021/08/01 05:37:08;;;;;;;4.87;3.90;;;15.40;99.90;;;;;;5034415;28;20220;-64
2021/08/01 05:39:37;;;;;;;4.27;3.93;;;15.40;99.90;;;;;;5035212;28;20201;-69
2021/08/01 05:42:03;;;;;;;7.50;4.07;;;15.50;99.90;;;;;;5028851;28;20584;-65
2021/08/01 05:44:29;;;;;;;4.17;3.50;;;15.50;99.90;;;;;;5015605;28;20402;-65
2021/08/01 05:46:54;;;;;;;4.37;3.43;;;15.60;99.90;;;;;;5015126;28;20449;-68
2021/08/01 05:49:20;;;;;;;4.20;3.80;;;15.50;99.90;;;;;;5015553;28;20191;-65
2021/08/01 05:51:46;;;;;;;4.33;3.97;;;15.50;99.90;;;;;;5015316;28;20194;-67
2021/08/01 05:54:11;;;;;;;4.23;3.93;;;15.50;99.90;;;;;;5015522;28;20179;-65
2021/08/01 05:56:37;;;;;;;3.40;3.13;;;15.60;99.90;;;;;;5015161;28;20171;-66
2021/08/01 05:59:02;;;;;;;4.80;4.27;;;15.60;99.90;;;;;;5015531;28;20240;-70
2021/08/01 06:01:28;;;;;;;3.40;3.07;;;15.60;99.90;;;;;;5015287;28;20171;-68
2021/08/01 06:03:54;;;;;;;4.60;4.20;;;15.70;99.90;;;;;;5031230;28;20178;-65
2021/08/01 06:06:24;;;;;;;3.50;3.20;;;15.80;99.90;;;;;;5034610;28;20221;-67
2021/08/01 06:08:56;;;;;;;5.00;4.00;;;15.90;99.90;;;;;;5032677;28;20193;-67
2021/08/01 06:11:21;;;;;;;3.67;3.37;;;15.90;99.90;;;;;;5034835;28;20427;-64
2021/08/01 06:13:47;;;;;;;4.50;4.10;;;15.90;99.90;;;;;;5034247;28;20488;-67
2021/08/01 06:16:14;;;;;;;3.93;3.53;;;15.90;99.90;;;;;;5034642;28;20293;-69
2021/08/01 06:18:42;;;;;;;4.00;3.13;;;16.00;99.90;;;;;;5017145;28;20441;-67
2021/08/01 06:21:13;;;;;;;5.00;4.60;;;16.00;99.90;;;;;;5014611;28;20412;-66
2021/08/01 06:23:39;;;;;;;7.60;4.80;;;16.10;99.90;;;;;;5013456;28;20416;-65
2021/08/01 06:26:05;;;;;;;4.73;3.63;;;16.10;99.90;;;;;;5014739;28;20496;-65
2021/08/01 06:28:31;;;;;;;5.60;5.07;;;16.20;99.90;;;;;;5012920;28;20991;-64
2021/08/01 06:31:00;;;;;;;3.40;3.13;;;16.30;99.90;;;;;;5014522;28;20433;-66
2021/08/01 06:33:26;;;;;;;4.27;3.90;;;16.40;99.90;;;;;;5031145;28;20416;-65
2021/08/01 06:35:51;;;;;;;4.07;3.73;;;16.30;99.90;;;;;;5034536;28;20508;-65
2021/08/01 06:38:17;;;;;;;4.80;4.40;;;16.30;99.90;;;;;;5033908;28;20202;-68
2021/08/01 06:40:43;;;;;;;5.40;3.97;;;16.30;99.90;;;;;;5033008;28;20185;-65
2021/08/01 06:43:08;;;;;;;3.27;3.03;;;16.40;99.90;;;;;;5034158;28;20292;-67
2021/08/01 06:45:34;;;;;;;5.87;4.27;;;16.50;99.90;;;;;;5034233;28;20174;-66
2021/08/01 06:48:00;;;;;;;4.40;3.90;;;16.50;99.90;;;;;;5018230;28;20289;-64
2021/08/01 06:50:26;;;;;;;4.20;3.70;;;16.50;99.90;;;;;;5014453;28;20514;-65
2021/08/01 06:52:51;;;;;;;6.40;4.90;;;16.50;99.90;;;;;;5014275;28;20225;-66
2021/08/01 06:55:17;;;;;;;3.77;3.33;;;16.50;99.90;;;;;;5014288;28;20560;-66
2021/08/01 06:57:42;;;;;;;4.03;3.73;;;16.50;99.90;;;;;;5027544;28;20185;-67
2021/08/01 07:00:10;;;;;;;4.20;3.60;;;16.60;99.90;;;;;;5033730;28;20186;-67
2021/08/01 07:02:35;;;;;;;5.10;3.63;;;16.60;99.90;;;;;;5034055;28;20178;-67
2021/08/01 07:05:01;;;;;;;3.77;3.47;;;16.60;99.90;;;;;;5030525;28;20482;-67
2021/08/01 07:07:27;;;;;;;3.83;3.53;;;16.70;99.90;;;;;;5013613;28;20260;-65
2021/08/01 07:09:52;;;;;;;5.60;3.73;;;16.80;99.90;;;;;;5014134;28;20661;-70
2021/08/01 07:12:18;;;;;;;3.47;3.17;;;16.90;99.90;;;;;;5014100;28;20186;-64
2021/08/01 07:14:46;;;;;;;3.37;3.13;;;17.00;99.90;;;;;;5014066;28;20175;-65
2021/08/01 07:17:11;;;;;;;4.73;3.50;;;17.00;99.90;;;;;;5017830;28;20206;-65
2021/08/01 07:19:37;;;;;;;6.03;4.87;;;17.10;99.90;;;;;;5033524;28;20463;-67
2021/08/01 07:22:03;;;;;;;3.27;2.97;;;17.10;99.90;;;;;;5033930;28;20176;-63
2021/08/01 07:24:28;;;;;;;4.37;2.93;;;17.00;99.90;;;;;;5033251;28;20262;-64
2021/08/01 07:26:55;;;;;;;3.57;3.27;;;17.00;99.90;;;;;;5017237;28;20204;-64
2021/08/01 07:29:22;;;;;;;4.10;3.70;;;17.00;99.90;;;;;;5007776;28;20196;-65
2021/08/01 07:31:47;;;;;;;4.57;3.27;;;17.00;99.90;;;;;;5014671;28;20423;-65
2021/08/01 07:34:13;;;;;;;3.37;3.07;;;17.00;99.90;;;;;;5033410;28;20704;-65
2021/08/01 07:36:38;;;;;;;3.90;3.60;;;17.00;99.90;;;;;;5033425;28;20206;-63
2021/08/01 07:39:05;;;;;;;3.60;3.30;;;16.80;99.90;;;;;;5033305;28;20557;-62
2021/08/01 07:41:31;;;;;;;4.10;3.43;;;16.80;99.90;;;;;;5033487;28;20723;-65
2021/08/01 07:43:57;;;;;;;3.40;3.10;;;16.80;99.90;;;;;;5025143;28;20421;-62
2021/08/01 07:46:22;;;;;;;4.40;2.70;;;16.80;99.90;;;;;;5013694;28;20405;-63
2021/08/01 07:48:48;;;;;;;3.90;3.60;;;16.80;99.90;;;;;;5012763;28;20199;-62
2021/08/01 07:51:14;;;;;;;3.70;3.50;;;16.80;99.90;;;;;;5013997;28;20172;-64
2021/08/01 07:53:39;;;;;;;3.33;3.13;;;16.80;99.90;;;;;;5012993;28;20175;-63
2021/08/01 07:56:05;;;;;;;3.90;3.57;;;16.80;99.90;;;;;;5013072;28;20924;-62
2021/08/01 07:58:31;;;;;;;3.83;3.27;;;16.70;99.90;;;;;;5012728;28;20265;-64
2021/08/01 08:00:57;;;;;;;3.57;3.27;;;16.60;99.90;;;;;;5013315;28;20711;-65
2021/08/01 08:03:23;;;;;;;3.90;3.50;;;16.50;99.90;;;;;;5010746;28;20258;-64
2021/08/01 08:05:48;;;;;;;6.27;3.67;;;16.50;99.90;;;;;;5013173;28;20493;-63
2021/08/01 08:08:14;;;;;;;4.00;3.60;;;16.50;99.90;;;;;;5012472;28;20540;-66
2021/08/01 08:10:40;;;;;;;4.10;3.80;;;16.50;99.90;;;;;;5012860;28;20180;-64
2021/08/01 08:13:05;;;;;;;5.03;4.53;;;16.60;99.90;;;;;;5013401;28;20263;-68
2021/08/01 08:15:32;;;;;;;5.03;4.63;;;16.60;99.90;;;;;;5012827;28;20681;-65
2021/08/01 08:17:58;;;;;;;4.90;3.80;;;16.60;99.90;;;;;;5012422;28;20577;-67
2021/08/01 08:20:23;;;;;;;3.57;3.27;;;16.70;99.90;;;;;;5012988;28;20422;-62
2021/08/01 08:22:49;;;;;;;3.50;3.20;;;16.70;99.90;;;;;;5013181;28;20193;-67
2021/08/01 08:25:15;;;;;;;8.00;5.07;;;16.80;99.90;;;;;;5011759;28;20641;-64
2021/08/01 08:27:40;;;;;;;4.23;3.87;;;16.80;99.90;;;;;;5012696;28;20213;-65
2021/08/01 08:30:07;;;;;;;4.53;3.53;;;16.90;99.90;;;;;;5020661;28;20182;-64
2021/08/01 08:32:34;;;;;;;5.93;4.50;;;17.00;99.90;;;;;;5032966;28;20306;-63
2021/08/01 08:35:00;;;;;;;3.80;3.50;;;17.10;99.90;;;;;;5032647;28;20407;-64
2021/08/01 08:37:26;;;;;;;6.03;4.20;;;17.10;99.90;;;;;;5032486;28;20445;-63
2021/08/01 08:39:52;;;;;;;4.33;3.93;;;17.00;99.90;;;;;;5032675;28;20518;-66
2021/08/01 08:42:18;;;;;;;4.63;4.10;;;17.00;99.90;;;;;;5030510;28;20182;-63
2021/08/01 08:44:44;;;;;;;4.27;3.87;;;17.10;99.90;;;;;;5033361;28;20418;-64
2021/08/01 08:47:16;;;;;;;3.47;3.27;;;17.10;99.90;;;;;;5035864;28;20523;-62
2021/08/01 08:49:47;;;;;;;3.87;3.40;;;17.10;99.90;;;;;;5036235;28;20420;-66
2021/08/01 08:52:13;;;;;;;4.10;3.60;;;17.10;99.90;;;;;;5036429;28;20391;-62
2021/08/01 08:54:44;;;;;;;4.10;3.63;;;17.20;99.90;;;;;;5036320;28;20751;-64
2021/08/01 08:57:29;;;;;;;3.80;3.50;;;17.20;99.90;;;;;;5026807;28;20509;-62
2021/08/01 09:00:13;;;;;;;4.40;3.67;;;17.30;99.90;;;;;;5016227;28;20452;-65
2021/08/01 09:02:39;;;;;;;4.07;3.77;;;17.40;99.90;;;;;;5015163;28;20521;-65
2021/08/01 09:05:07;;;;;;;4.20;3.90;;;17.60;99.90;;;;;;5016366;28;20737;-64
2021/08/01 09:07:38;;;;;;;6.73;3.47;;;17.70;99.90;;;;;;5015668;28;20469;-64
2021/08/01 09:10:05;;;;;;;4.03;3.73;;;17.90;99.90;;;;;;5016338;28;20386;-63
2021/08/01 09:12:42;;;;;;;3.60;3.40;;;18.10;99.90;;;;;;5029733;28;20978;-63
2021/08/01 09:15:12;;;;;;;4.00;3.70;;;18.20;99.90;;;;;;5034710;28;20415;-63
2021/08/01 09:17:38;;;;;;;4.10;3.70;;;18.30;99.90;;;;;;5035350;28;20392;-65
2021/08/01 09:20:22;;;;;;;6.23;4.53;;;18.30;99.90;;;;;;5035612;28;20922;-63
2021/08/01 09:23:08;;;;;;;5.83;5.30;;;18.50;99.90;;;;;;5020728;28;20503;-63
2021/08/01 09:25:43;;;;;;;4.50;3.90;;;18.60;99.90;;;;;;5014613;28;20429;-61
2021/08/01 09:28:16;;;;;;;3.90;3.57;;;18.80;99.90;;;;;;5015363;28;20469;-64
2021/08/01 09:30:55;;;;;;;2.70;2.50;;;19.00;99.90;;;;;;5015635;28;20415;-63
2021/08/01 09:33:40;;;;;;;2.60;2.40;;;19.10;99.90;;;;;;5015680;28;20402;-64
2021/08/01 09:36:13;;;;;;;2.97;2.77;;;19.20;99.90;;;;;;5018216;28;20406;-64
2021/08/01 09:39:04;;;;;;;3.00;2.80;;;19.30;99.90;;;;;;5035127;28;20487;-61
2021/08/01 09:41:32;;;;;;;3.20;2.07;;;19.30;99.90;;;;;;5035408;28;20404;-65
2021/08/01 09:44:02;;;;;;;3.13;2.70;;;19.20;99.90;;;;;;5035369;28;20730;-62
2021/08/01 09:46:44;;;;;;;2.50;2.30;;;19.10;99.90;;;;;;5035326;28;20412;-65
2021/08/01 09:49:10;;;;;;;2.63;2.43;;;19.20;99.90;;;;;;5035330;28;20766;-62
2021/08/01 09:51:54;;;;;;;2.20;2.10;;;19.20;99.90;;;;;;5025845;28;20422;-63
2021/08/01 09:54:22;;;;;;;3.10;2.80;;;19.30;99.90;;;;;;5015570;28;20380;-64
2021/08/01 09:56:59;;;;;;;3.10;2.80;;;19.30;99.90;;;;;;5014551;28;20860;-64
2021/08/01 09:59:27;;;;;;;2.93;2.73;;;19.40;99.90;;;;;;5014032;28;20415;-62
2021/08/01 10:01:55;;;;;;;2.63;2.53;;;19.60;99.90;;;;;;5015208;28;20816;-62
2021/08/01 10:04:25;;;;;;;2.80;2.60;;;19.70;99.90;;;;;;5015311;28;20492;-64
2021/08/01 10:07:02;;;;;;;2.20;2.10;;;19.80;99.90;;;;;;5027114;28;20456;-62
2021/08/01 10:09:28;;;;;;;2.40;2.30;;;19.80;99.90;;;;;;5034395;28;20515;-65
2021/08/01 10:11:54;;;;;;;3.93;2.83;;;19.80;99.90;;;;;;5034996;28;20480;-63
2021/08/01 10:14:20;;;;;;;2.40;2.20;;;19.80;99.90;;;;;;5034721;28;20189;-63
2021/08/01 10:16:46;;;;;;;2.47;2.30;;;19.80;99.90;;;;;;5034318;28;20912;-62
2021/08/01 10:19:12;;;;;;;2.43;2.23;;;19.80;99.90;;;;;;5034606;28;20407;-65
2021/08/01 10:21:39;;;;;;;2.10;2.00;;;19.80;99.90;;;;;;5021238;28;20183;-63
2021/08/01 10:24:09;;;;;;;2.37;2.17;;;19.70;99.90;;;;;;5014872;28;20171;-62
2021/08/01 10:26:38;;;;;;;2.73;2.53;;;19.50;99.90;;;;;;5014422;28;20819;-65
2021/08/01 10:29:07;;;;;;;2.47;2.27;;;19.30;99.90;;;;;;5014588;28;20400;-64
2021/08/01 10:31:46;;;;;;;6.53;2.70;;;19.10;99.90;;;;;;5014621;28;20905;-63
2021/08/01 10:34:15;;;;;;;2.60;2.40;;;18.90;99.90;;;;;;5014721;28;20383;-65
2021/08/01 10:36:51;;;;;;;3.53;2.60;;;18.90;99.90;;;;;;5029757;28;20420;-64
2021/08/01 10:39:18;;;;;;;2.07;1.97;;;18.90;99.90;;;;;;5034247;28;20391;-63
2021/08/01 10:41:44;;;;;;;2.70;2.50;;;19.00;99.90;;;;;;5034232;28;20742;-64
2021/08/01 10:44:12;;;;;;;2.10;2.00;;;19.00;99.90;;;;;;5034215;28;20401;-64
2021/08/01 10:46:39;;;;;;;1.90;1.80;;;19.20;99.90;;;;;;5033723;28;20385;-64
2021/08/01 10:49:07;;;;;;;3.50;2.10;;;19.40;99.90;;;;;;5034106;28;20429;-64
2021/08/01 10:51:34;;;;;;;2.10;1.77;;;19.70;99.90;;;;;;5017580;28;20783;-63
2021/08/01 10:54:24;;;;;;;2.10;2.00;;;20.00;99.90;;;;;;5014327;28;20413;-63
2021/08/01 10:57:15;;;;;;;1.70;1.60;;;20.20;99.90;;;;;;5020599;28;21107;-62
2021/08/01 10:59:43;;;;;;;2.90;2.13;;;20.60;99.90;;;;;;5033968;28;20445;-65
2021/08/01 11:02:25;;;;;;;2.37;2.17;;;20.90;99.90;;;;;;5033937;28;20407;-61
2021/08/01 11:04:52;;;;;;;2.00;1.87;;;21.20;99.90;;;;;;5034277;28;20427;-63
2021/08/01 11:07:29;;;;;;;2.80;2.03;;;21.40;99.90;;;;;;5032560;28;20437;-64
2021/08/01 11:10:10;;;;;;;2.00;1.90;;;21.60;99.90;;;;;;5033910;28;20742;-64
2021/08/01 11:12:41;;;;;;;2.60;2.37;;;21.80;99.90;;;;;;5018334;28;20432;-62
2021/08/01 11:15:08;;;;;;;1.87;1.77;;;22.10;99.90;;;;;;5013825;28;20502;-62
2021/08/01 11:17:43;;;;;;;2.60;2.40;;;22.30;99.90;;;;;;5013415;28;20747;-63
2021/08/01 11:20:31;;;;;;;5.20;3.70;;;22.40;99.90;;;;;;5014072;28;20801;-65
2021/08/01 11:22:58;;;;;;;2.50;2.30;;;22.40;99.90;;;;;;5016366;28;20389;-65
2021/08/01 11:25:31;;;;;;;2.83;2.53;;;22.20;99.90;;;;;;5013714;28;20429;-61
2021/08/01 11:33:31;;;;;;;3.37;2.30;;;22.20;99.90;;;;;;5033534;28;20384;-64
2021/08/01 11:36:28;;;;;;;9.43;5.83;;;22.20;99.90;;;;;;5033264;28;20409;-64
2021/08/01 11:38:53;;;;;;;2.43;2.23;;;22.10;99.90;;;;;;5032463;28;20415;-62
2021/08/01 11:44:03;;;;;;;1.90;1.80;;;22.10;99.90;;;;;;5013684;28;20174;-63
2021/08/01 11:46:55;;;;;;;1.90;1.80;;;22.30;99.90;;;;;;5013633;28;20407;-65
2021/08/01 11:49:28;;;;;;;2.87;2.20;;;22.40;99.90;;;;;;5013702;28;20468;-64
2021/08/01 11:51:55;;;;;;;2.43;2.23;;;22.60;99.90;;;;;;5013461;28;20388;-61
2021/08/01 11:54:26;;;;;;;2.23;1.80;;;22.80;99.90;;;;;;5013070;28;20396;-63
2021/08/01 11:56:55;;;;;;;2.43;2.33;;;22.90;99.90;;;;;;5027797;28;20395;-62
2021/08/01 11:59:21;;;;;;;2.27;2.07;;;23.20;99.90;;;;;;5033106;28;20412;-63
2021/08/01 12:01:49;;;;;;;2.73;2.40;;;23.50;99.90;;;;;;5033162;28;20421;-63
2021/08/01 12:04:14;;;;;;;1.90;1.80;;;23.60;99.90;;;;;;5033280;28;20741;-64
2021/08/01 12:06:43;;;;;;;2.17;1.97;;;23.60;99.90;;;;;;5032907;28;20395;-62
2021/08/01 12:09:25;;;;;;;2.60;2.07;;;23.60;99.90;;;;;;5032937;28;20198;-62
2021/08/01 12:11:58;;;;;;;2.20;2.10;;;23.40;99.90;;;;;;5016098;28;20436;-62
2021/08/01 12:14:27;;;;;;;2.30;2.10;;;23.40;99.90;;;;;;5013682;28;20377;-64
2021/08/01 12:17:01;;;;;;;3.20;2.90;;;23.30;99.90;;;;;;5012988;28;20389;-62
2021/08/01 12:19:39;;;;;;;2.20;2.10;;;23.20;99.90;;;;;;5013837;28;20432;-65
2021/08/01 12:22:08;;;;;;;3.63;2.63;;;23.30;99.90;;;;;;5016015;28;20409;-63
2021/08/01 12:24:43;;;;;;;2.80;2.60;;;23.40;99.90;;;;;;5016684;28;20439;-63
2021/08/01 12:27:22;;;;;;;2.93;2.73;;;23.50;99.90;;;;;;5036360;28;20454;-63
2021/08/01 12:29:53;;;;;;;1.93;1.83;;;23.60;99.90;;;;;;5036507;28;20469;-63
2021/08/01 12:32:25;;;;;;;2.07;1.87;;;23.90;99.90;;;;;;5036561;28;20908;-64
2021/08/01 12:35:06;;;;;;;2.27;2.07;;;23.90;99.90;;;;;;5036717;28;20384;-62
2021/08/01 12:37:42;;;;;;;3.20;2.23;;;23.90;99.90;;;;;;5036351;28;20433;-63
2021/08/01 12:40:09;;;;;;;2.03;1.93;;;23.80;99.90;;;;;;5029360;28;20844;-62
2021/08/01 12:42:34;;;;;;;2.60;2.43;;;23.80;99.90;;;;;;5016704;28;20463;-63
2021/08/01 12:45:03;;;;;;;2.80;2.60;;;23.70;99.90;;;;;;5016585;28;20500;-63
2021/08/01 12:47:31;;;;;;;2.00;1.90;;;23.60;99.90;;;;;;5016342;28;20206;-63
2021/08/01 12:50:02;;;;;;;3.03;2.73;;;23.50;99.90;;;;;;5015575;28;20418;-64
2021/08/01 12:52:28;;;;;;;2.47;2.27;;;23.20;99.90;;;;;;5015359;28;20388;-64
2021/08/01 12:54:55;;;;;;;3.20;2.40;;;23.00;99.90;;;;;;5022407;28;20394;-63
2021/08/01 12:57:21;;;;;;;2.40;2.20;;;22.80;99.90;;;;;;5033985;28;20206;-61
2021/08/01 13:00:16;;;;;;;4.17;3.80;;;22.70;99.90;;;;;;5017956;28;20914;-64
2021/08/01 13:02:44;;;;;;;3.93;3.10;;;22.40;99.90;;;;;;5006277;28;20422;-64
2021/08/01 13:05:30;;;;;;;2.90;2.60;;;22.20;99.90;;;;;;5006065;28;20419;-62